createdAt,value
2019-01-14T00:01:46.673Z,95168.00
2019-01-14T00:04:14.591Z,95190.00
2019-01-14T00:06:42.376Z,95189.00
2019-01-14T00:09:10.140Z,95204.00
2019-01-14T00:11:38.190Z,95201.00
2019-01-14T00:14:05.956Z,95198.00
2019-01-14T00:16:33.640Z,95206.00
2019-01-14T00:19:01.296Z,95172.00
2019-01-14T00:21:29.052Z,95211.00
2019-01-14T00:23:56.769Z,95204.00
2019-01-14T00:26:24.539Z,95209.00
2019-01-14T00:28:52.247Z,95197.00
2019-01-14T00:31:19.931Z,95210.00
2019-01-14T00:33:48.428Z,95216.00
2019-01-14T00:36:17.585Z,95212.00
2019-01-14T00:38:45.437Z,95223.00
2019-01-14T00:41:13.113Z,95227.00
2019-01-14T00:43:40.716Z,95223.00
2019-01-14T00:46:08.643Z,95233.00
2019-01-14T00:48:36.326Z,95252.00
2019-01-14T00:51:04.082Z,95248.00
2019-01-14T00:53:31.862Z,95248.00
2019-01-14T00:55:59.874Z,95231.00
2019-01-14T00:58:27.681Z,95248.00
2019-01-14T01:00:55.451Z,95249.00
2019-01-14T01:03:23.363Z,95261.00
2019-01-14T01:05:51.053Z,95262.00
2019-01-14T01:08:18.847Z,95253.00
2019-01-14T01:10:46.617Z,95278.00
2019-01-14T01:13:14.552Z,95275.00
2019-01-14T01:15:42.331Z,95268.00
2019-01-14T01:18:10.618Z,95284.00
2019-01-14T01:20:38.381Z,95296.00
2019-01-14T01:23:06.074Z,95284.00
2019-01-14T01:25:33.853Z,95286.00
2019-01-14T01:28:01.538Z,95277.00
2019-01-14T01:30:29.565Z,95287.00
2019-01-14T01:32:57.503Z,95282.00
2019-01-14T01:35:25.230Z,95288.00
2019-01-14T01:37:53.023Z,95296.00
2019-01-14T01:40:21.174Z,95297.00
2019-01-14T01:42:48.966Z,95301.00
2019-01-14T01:45:17.166Z,95308.00
2019-01-14T01:47:45.218Z,95305.00
2019-01-14T01:50:15.500Z,95315.00
2019-01-14T01:52:43.256Z,95321.00
2019-01-14T01:55:12.381Z,95332.00
2019-01-14T01:57:40.180Z,95329.00
2019-01-14T02:00:20.123Z,95332.00
2019-01-14T02:02:48.348Z,95351.00
2019-01-14T02:05:16.712Z,95341.00
2019-01-14T02:07:44.505Z,95358.00
2019-01-14T02:10:16.279Z,95368.00
2019-01-14T02:12:44.066Z,95391.00
2019-01-14T02:15:13.015Z,95274.00
2019-01-14T02:17:41.511Z,95402.00
2019-01-14T02:20:10.882Z,95395.00
2019-01-14T02:22:38.624Z,95421.00
2019-01-14T02:25:07.465Z,95410.00
2019-01-14T02:27:35.118Z,95434.00
2019-01-14T02:30:05.881Z,95437.00
2019-01-14T02:32:33.909Z,95462.00
2019-01-14T02:35:01.695Z,95431.00
2019-01-14T02:37:29.369Z,95450.00
2019-01-14T02:39:57.196Z,95439.00
2019-01-14T02:42:25.112Z,95458.00
2019-01-14T02:44:52.819Z,95452.00
2019-01-14T02:47:20.567Z,95452.00
2019-01-14T02:49:49.304Z,95470.00
2019-01-14T02:52:16.858Z,95471.00
2019-01-14T02:54:44.787Z,95477.00
2019-01-14T02:57:12.711Z,95483.00
2019-01-14T02:59:40.385Z,95486.00
2019-01-14T03:02:08.165Z,95483.00
2019-01-14T03:04:35.750Z,95514.00
2019-01-14T03:07:03.824Z,95509.00
2019-01-14T03:09:31.515Z,95520.00
2019-01-14T03:11:59.554Z,95527.00
2019-01-14T03:14:27.312Z,95527.00
2019-01-14T03:16:55.174Z,95543.00
2019-01-14T03:19:22.971Z,95528.00
2019-01-14T03:21:50.729Z,95525.00
2019-01-14T03:24:18.539Z,95548.00
2019-01-14T03:26:46.102Z,95531.00
2019-01-14T03:29:14.162Z,95540.00
2019-01-14T03:31:42.435Z,95539.00
2019-01-14T03:34:10.501Z,95557.00
2019-01-14T03:36:38.278Z,95560.00
2019-01-14T03:39:06.644Z,95561.00
2019-01-14T03:41:34.311Z,95557.00
2019-01-14T03:44:02.387Z,95571.00
2019-01-14T03:46:30.339Z,95568.00
2019-01-14T03:48:57.988Z,95575.00
2019-01-14T03:51:25.651Z,95577.00
2019-01-14T03:53:53.408Z,95572.00
2019-01-14T03:56:21.526Z,95576.00
2019-01-14T03:58:49.516Z,95578.00
2019-01-14T04:01:17.124Z,95606.00
2019-01-14T04:03:44.888Z,95609.00
2019-01-14T04:06:12.971Z,95614.00
2019-01-14T04:08:40.714Z,95623.00
2019-01-14T04:11:08.506Z,95633.00
2019-01-14T04:13:37.623Z,95623.00
2019-01-14T04:16:05.402Z,95634.00
2019-01-14T04:18:33.314Z,95667.00
2019-01-14T04:21:01.418Z,95654.00
2019-01-14T04:23:29.748Z,95651.00
2019-01-14T04:25:57.527Z,95672.00
2019-01-14T04:28:25.326Z,95658.00
2019-01-14T04:30:53.379Z,95667.00
2019-01-14T04:33:21.336Z,95672.00
2019-01-14T04:35:49.152Z,95684.00
2019-01-14T04:38:16.914Z,95674.00
2019-01-14T04:40:44.715Z,95686.00
2019-01-14T04:43:12.860Z,95696.00
2019-01-14T04:45:40.507Z,95717.00
2019-01-14T04:48:08.333Z,95698.00
2019-01-14T04:50:36.385Z,95709.00
2019-01-14T04:53:04.487Z,95729.00
2019-01-14T04:55:32.164Z,95716.00
2019-01-14T04:58:00.190Z,95727.00
2019-01-14T05:00:27.995Z,95733.00
2019-01-14T05:02:56.043Z,95758.00
2019-01-14T05:05:23.819Z,95747.00
2019-01-14T05:07:51.837Z,95774.00
2019-01-14T05:10:20.270Z,95765.00
2019-01-14T05:12:48.028Z,95775.00
2019-01-14T05:15:15.921Z,95775.00
2019-01-14T05:17:43.681Z,95783.00
2019-01-14T05:20:23.371Z,95778.00
2019-01-14T05:22:51.929Z,95793.00
2019-01-14T05:25:19.864Z,95790.00
2019-01-14T05:27:47.715Z,95794.00
2019-01-14T05:30:16.305Z,95798.00
2019-01-14T05:32:44.067Z,95806.00
2019-01-14T05:35:12.106Z,95808.00
2019-01-14T05:37:39.901Z,95821.00
2019-01-14T05:40:12.451Z,95828.00
2019-01-14T05:42:40.507Z,95852.00
2019-01-14T05:45:08.723Z,95856.00
2019-01-14T05:47:36.528Z,95842.00
2019-01-14T05:50:04.811Z,95852.00
2019-01-14T05:52:32.657Z,95861.00
2019-01-14T05:55:00.455Z,95854.00
2019-01-14T05:57:28.159Z,95865.00
2019-01-14T05:59:55.814Z,95844.00
2019-01-14T06:02:23.496Z,95857.00
2019-01-14T06:04:51.257Z,95860.00
2019-01-14T06:07:18.864Z,95869.00
2019-01-14T06:09:46.682Z,95873.00
2019-01-14T06:12:14.755Z,95884.00
2019-01-14T06:14:42.318Z,95883.00
2019-01-14T06:17:10.373Z,95876.00
2019-01-14T06:19:38.414Z,95771.00
2019-01-14T06:22:06.206Z,95906.00
2019-01-14T06:24:33.949Z,95891.00
2019-01-14T06:27:01.780Z,95908.00
2019-01-14T06:29:29.435Z,95904.00
2019-01-14T06:31:57.225Z,95904.00
2019-01-14T06:34:24.969Z,95917.00
2019-01-14T06:36:52.651Z,95916.00
2019-01-14T06:39:20.407Z,95916.00
2019-01-14T06:41:48.352Z,95924.00
2019-01-14T06:44:16.206Z,95928.00
2019-01-14T06:46:43.951Z,95929.00
2019-01-14T06:49:11.708Z,95928.00
2019-01-14T06:51:39.487Z,95918.00
2019-01-14T06:54:07.311Z,95926.00
2019-01-14T06:56:35.344Z,95919.00
2019-01-14T06:59:03.202Z,95933.00
2019-01-14T07:01:31.146Z,95932.00
2019-01-14T07:03:58.904Z,95939.00
2019-01-14T07:06:26.615Z,95949.00
2019-01-14T07:08:54.518Z,95951.00
2019-01-14T07:11:22.415Z,95955.00
2019-01-14T07:13:50.256Z,95965.00
2019-01-14T07:16:18.196Z,95970.00
2019-01-14T07:18:46.937Z,95973.00
2019-01-14T07:21:15.170Z,95966.00
2019-01-14T07:23:43.361Z,95971.00
2019-01-14T07:26:11.106Z,95993.00
2019-01-14T07:28:38.882Z,95982.00
2019-01-14T07:31:06.839Z,95995.00
2019-01-14T07:33:34.667Z,96013.00
2019-01-14T07:36:02.546Z,95997.00
2019-01-14T07:38:30.706Z,96011.00
2019-01-14T07:40:58.778Z,96011.00
2019-01-14T07:43:26.630Z,96002.00
2019-01-14T07:45:54.696Z,96018.00
2019-01-14T07:48:22.486Z,96020.00
2019-01-14T07:50:50.944Z,96027.00
2019-01-14T07:53:19.363Z,96021.00
2019-01-14T07:55:47.017Z,96031.00
2019-01-14T07:58:14.755Z,96030.00
2019-01-14T08:00:42.697Z,96033.00
2019-01-14T08:03:10.626Z,96041.00
2019-01-14T08:05:38.224Z,96027.00
2019-01-14T08:08:06.063Z,96041.00
2019-01-14T08:10:33.822Z,96025.00
2019-01-14T08:13:01.623Z,96044.00
2019-01-14T08:15:29.288Z,96039.00
2019-01-14T08:17:57.346Z,96031.00
2019-01-14T08:20:25.377Z,96030.00
2019-01-14T08:22:53.089Z,96047.00
2019-01-14T08:25:20.873Z,96039.00
2019-01-14T08:27:48.688Z,96048.00
2019-01-14T08:30:23.209Z,96050.00
2019-01-14T08:32:51.376Z,96047.00
2019-01-14T08:35:20.297Z,96050.00
2019-01-14T08:37:48.096Z,96048.00
2019-01-14T08:40:17.180Z,96055.00
2019-01-14T08:42:45.115Z,96058.00
2019-01-14T08:45:12.925Z,96043.00
2019-01-14T08:47:40.705Z,96059.00
2019-01-14T08:50:13.343Z,95933.00
2019-01-14T08:52:41.148Z,96047.00
2019-01-14T08:55:09.203Z,96054.00
2019-01-14T08:57:37.118Z,96054.00
2019-01-14T09:00:12.189Z,96067.00
2019-01-14T09:02:40.119Z,96066.00
2019-01-14T09:05:08.571Z,96065.00
2019-01-14T09:07:36.787Z,96072.00
2019-01-14T09:10:08.686Z,96076.00
2019-01-14T09:12:36.603Z,96071.00
2019-01-14T09:15:07.193Z,96068.00
2019-01-14T09:17:35.046Z,96078.00
2019-01-14T09:20:05.778Z,96075.00
2019-01-14T09:22:33.602Z,96073.00
2019-01-14T09:25:01.366Z,96068.00
2019-01-14T09:27:30.060Z,96067.00
2019-01-14T09:29:57.996Z,96062.00
2019-01-14T09:32:25.802Z,96073.00
2019-01-14T09:34:53.550Z,96081.00
2019-01-14T09:37:21.340Z,96070.00
2019-01-14T09:39:49.419Z,96078.00
2019-01-14T09:42:17.449Z,96077.00
2019-01-14T09:44:45.058Z,96075.00
2019-01-14T09:47:12.840Z,96069.00
2019-01-14T09:49:40.518Z,96068.00
2019-01-14T09:52:08.284Z,96083.00
2019-01-14T09:54:36.336Z,96078.00
2019-01-14T09:57:04.676Z,96076.00
2019-01-14T09:59:32.353Z,96090.00
2019-01-14T10:02:00.117Z,96088.00
2019-01-14T10:04:27.813Z,96079.00
2019-01-14T10:06:55.897Z,96074.00
2019-01-14T10:09:23.955Z,96089.00
2019-01-14T10:11:51.641Z,96089.00
2019-01-14T10:14:19.442Z,96087.00
2019-01-14T10:16:47.245Z,96085.00
2019-01-14T10:19:15.711Z,96092.00
2019-01-14T10:21:43.389Z,96082.00
2019-01-14T10:24:11.193Z,96085.00
2019-01-14T10:26:38.991Z,96098.00
2019-01-14T10:29:07.244Z,96085.00
2019-01-14T10:31:35.061Z,96115.00
2019-01-14T10:34:02.965Z,96108.00
2019-01-14T10:36:30.838Z,96110.00
2019-01-14T10:38:59.016Z,96086.00
2019-01-14T10:41:26.802Z,96094.00
2019-01-14T10:43:54.598Z,96091.00
2019-01-14T10:46:22.701Z,96095.00
2019-01-14T10:48:50.775Z,96085.00
2019-01-14T10:51:19.304Z,96095.00
2019-01-14T10:53:47.024Z,96101.00
2019-01-14T10:56:14.968Z,96092.00
2019-01-14T10:58:42.961Z,96104.00
2019-01-14T11:01:11.027Z,96090.00
2019-01-14T11:03:38.993Z,96084.00
2019-01-14T11:06:06.866Z,96075.00
2019-01-14T11:08:34.950Z,96084.00
2019-01-14T11:11:03.212Z,96087.00
2019-01-14T11:13:31.099Z,96099.00
2019-01-14T11:15:58.859Z,96105.00
2019-01-14T11:18:26.831Z,96102.00
2019-01-14T11:20:54.498Z,96098.00
2019-01-14T11:23:22.384Z,96091.00
2019-01-14T11:25:50.148Z,96084.00
2019-01-14T11:28:17.977Z,96085.00
2019-01-14T11:30:45.790Z,96108.00
2019-01-14T11:33:13.568Z,96100.00
2019-01-14T11:35:41.460Z,96109.00
2019-01-14T11:38:46.050Z,96116.00
2019-01-14T11:41:14.348Z,96124.00
2019-01-14T11:43:42.144Z,96130.00
2019-01-14T11:46:09.908Z,96114.00
2019-01-14T11:48:37.709Z,96131.00
2019-01-14T11:51:05.949Z,96114.00
2019-01-14T11:53:33.916Z,96125.00
2019-01-14T11:56:01.852Z,96113.00
2019-01-14T11:58:29.704Z,96133.00
2019-01-14T12:00:57.486Z,96151.00
2019-01-14T12:03:25.169Z,96150.00
2019-01-14T12:05:55.675Z,96144.00
2019-01-14T12:08:25.753Z,96141.00
2019-01-14T12:10:53.839Z,96145.00
2019-01-14T12:13:21.609Z,96160.00
2019-01-14T12:15:49.391Z,96148.00
2019-01-14T12:18:20.242Z,96153.00
2019-01-14T12:20:48.066Z,96163.00
2019-01-14T12:23:15.872Z,96149.00
2019-01-14T12:25:43.662Z,96155.00
2019-01-14T12:28:11.455Z,96163.00
2019-01-14T12:30:41.607Z,96154.00
2019-01-14T12:33:09.652Z,96152.00
2019-01-14T12:35:39.352Z,96153.00
2019-01-14T12:38:07.793Z,96138.00
2019-01-14T12:40:35.590Z,96164.00
2019-01-14T12:43:03.542Z,96146.00
2019-01-14T12:45:31.345Z,96169.00
2019-01-14T12:47:59.180Z,96163.00
2019-01-14T12:50:29.504Z,96174.00
2019-01-14T12:52:57.746Z,96171.00
2019-01-14T12:55:25.538Z,96183.00
2019-01-14T12:57:53.934Z,96178.00
2019-01-14T13:00:25.970Z,96189.00
2019-01-14T13:02:58.339Z,96190.00
2019-01-14T13:05:23.939Z,96193.00
2019-01-14T13:07:51.709Z,96194.00
2019-01-14T13:10:19.785Z,96195.00
2019-01-14T13:12:48.023Z,96187.00
2019-01-14T13:15:19.209Z,96203.00
2019-01-14T13:17:46.981Z,96181.00
2019-01-14T13:20:15.300Z,96185.00
2019-01-14T13:22:43.085Z,96201.00
2019-01-14T13:25:10.929Z,96207.00
2019-01-14T13:27:38.821Z,96221.00
2019-01-14T13:30:12.181Z,96201.00
2019-01-14T13:32:39.907Z,96219.00
2019-01-14T13:35:07.942Z,96235.00
2019-01-14T13:37:35.719Z,96235.00
2019-01-14T13:40:05.507Z,96229.00
2019-01-14T13:42:33.546Z,96236.00
2019-01-14T13:45:01.262Z,96242.00
2019-01-14T13:47:29.277Z,96240.00
2019-01-14T13:49:57.217Z,96246.00
2019-01-14T13:52:25.147Z,96240.00
2019-01-14T13:54:52.927Z,96248.00
2019-01-14T13:57:21.304Z,96256.00
2019-01-14T13:59:49.259Z,96253.00
2019-01-14T14:02:17.054Z,96265.00
2019-01-14T14:04:44.615Z,96270.00
2019-01-14T14:07:12.415Z,96278.00
2019-01-14T14:09:41.327Z,96260.00
2019-01-14T14:12:09.295Z,96263.00
2019-01-14T14:14:37.152Z,96273.00
2019-01-14T14:17:04.986Z,96266.00
2019-01-14T14:19:33.076Z,96279.00
2019-01-14T14:22:00.883Z,96275.00
2019-01-14T14:24:29.174Z,96280.00
2019-01-14T14:26:57.162Z,96277.00
2019-01-14T14:29:24.859Z,96288.00
2019-01-14T14:31:52.922Z,96298.00
2019-01-14T14:34:20.868Z,96297.00
2019-01-14T14:36:48.842Z,96304.00
2019-01-14T14:39:16.435Z,96335.00
2019-01-14T14:41:44.510Z,96325.00
2019-01-14T14:44:12.093Z,96323.00
2019-01-14T14:46:39.910Z,96321.00
2019-01-14T14:49:07.675Z,96328.00
2019-01-14T14:51:35.753Z,96321.00
2019-01-14T14:54:03.613Z,96305.00
2019-01-14T14:56:31.225Z,96315.00
2019-01-14T14:58:59.004Z,96318.00
2019-01-14T15:01:26.968Z,96337.00
2019-01-14T15:03:54.826Z,96348.00
2019-01-14T15:06:22.621Z,96343.00
2019-01-14T15:08:50.302Z,96358.00
2019-01-14T15:11:18.186Z,96364.00
2019-01-14T15:13:46.176Z,96351.00
2019-01-14T15:16:14.010Z,96350.00
2019-01-14T15:18:41.776Z,96347.00
2019-01-14T15:21:09.622Z,96366.00
2019-01-14T15:23:39.286Z,96360.00
2019-01-14T15:26:07.342Z,96383.00
2019-01-14T15:28:35.053Z,96402.00
2019-01-14T15:31:02.808Z,96391.00
2019-01-14T15:33:30.529Z,96409.00
2019-01-14T15:35:58.276Z,96426.00
2019-01-14T15:38:26.616Z,96428.00
2019-01-14T15:40:54.383Z,96436.00
2019-01-14T15:43:22.354Z,96429.00
2019-01-14T15:45:49.996Z,96443.00
2019-01-14T15:48:18.226Z,96436.00
2019-01-14T15:50:46.883Z,96434.00
2019-01-14T15:53:14.672Z,96456.00
2019-01-14T15:55:42.730Z,96445.00
2019-01-14T15:58:11.186Z,96462.00
2019-01-14T16:00:39.000Z,96473.00
2019-01-14T16:03:07.179Z,96465.00
2019-01-14T16:05:34.932Z,96477.00
2019-01-14T16:08:02.946Z,96474.00
2019-01-14T16:10:30.610Z,96490.00
2019-01-14T16:12:58.612Z,96488.00
2019-01-14T16:15:26.163Z,96497.00
2019-01-14T16:17:53.857Z,96507.00
2019-01-14T16:20:26.003Z,96524.00
2019-01-14T16:22:54.196Z,96530.00
2019-01-14T16:25:21.728Z,96558.00
2019-01-14T16:27:49.878Z,96558.00
2019-01-14T16:30:26.373Z,96567.00
2019-01-14T16:32:54.171Z,96561.00
2019-01-14T16:35:23.332Z,96558.00
2019-01-14T16:37:51.274Z,96557.00
2019-01-14T16:40:20.794Z,96583.00
2019-01-14T16:42:48.685Z,96574.00
2019-01-14T16:45:19.689Z,96587.00
2019-01-14T16:47:47.752Z,96579.00
2019-01-14T16:50:16.375Z,96590.00
2019-01-14T16:52:44.337Z,96574.00
2019-01-14T16:55:14.125Z,96592.00
2019-01-14T16:57:44.575Z,96589.00
2019-01-14T17:00:15.651Z,96589.00
2019-01-14T17:02:43.681Z,96587.00
2019-01-14T17:05:13.535Z,96595.00
2019-01-14T17:07:41.522Z,96604.00
2019-01-14T17:10:11.817Z,96606.00
2019-01-14T17:12:39.631Z,96626.00
2019-01-14T17:15:07.606Z,96630.00
2019-01-14T17:17:35.509Z,96620.00
2019-01-14T17:20:07.288Z,96630.00
2019-01-14T17:22:35.490Z,96632.00
2019-01-14T17:25:05.242Z,96644.00
2019-01-14T17:27:33.321Z,96637.00
2019-01-14T17:30:00.979Z,96644.00
2019-01-14T17:32:29.360Z,96536.00
2019-01-14T17:34:57.305Z,96667.00
2019-01-14T17:37:25.240Z,96680.00
2019-01-14T17:39:52.752Z,96671.00
2019-01-14T17:42:20.699Z,96682.00
2019-01-14T17:44:48.529Z,96678.00
2019-01-14T17:47:16.180Z,96677.00
2019-01-14T17:49:43.880Z,96688.00
2019-01-14T17:52:12.021Z,96693.00
2019-01-14T17:54:39.736Z,96691.00
2019-01-14T17:57:07.438Z,96698.00
2019-01-14T17:59:35.467Z,96705.00
2019-01-14T18:02:03.723Z,96695.00
2019-01-14T18:04:31.536Z,96705.00
2019-01-14T18:06:59.507Z,96706.00
2019-01-14T18:09:27.007Z,96702.00
2019-01-14T18:11:54.798Z,96714.00
2019-01-14T18:14:22.480Z,96720.00
2019-01-14T18:16:49.941Z,96723.00
2019-01-14T18:19:17.852Z,96716.00
2019-01-14T18:21:45.897Z,96726.00
2019-01-14T18:24:14.003Z,96732.00
2019-01-14T18:26:41.660Z,96730.00
2019-01-14T18:29:09.683Z,96734.00
2019-01-14T18:31:37.373Z,96744.00
2019-01-14T18:34:05.197Z,96743.00
2019-01-14T18:36:32.971Z,96747.00
2019-01-14T18:39:01.032Z,96743.00
2019-01-14T18:41:30.589Z,96752.00
2019-01-14T18:43:58.436Z,96754.00
2019-01-14T18:46:26.340Z,96762.00
2019-01-14T18:48:53.935Z,96756.00
2019-01-14T18:51:21.698Z,96770.00
2019-01-14T18:53:49.392Z,96784.00
2019-01-14T18:56:17.227Z,96777.00
2019-01-14T18:58:44.717Z,96788.00
2019-01-14T19:01:12.628Z,96801.00
2019-01-14T19:03:40.292Z,96786.00
2019-01-14T19:06:08.259Z,96784.00
2019-01-14T19:08:36.023Z,96797.00
2019-01-14T19:11:04.124Z,96809.00
2019-01-14T19:13:31.780Z,96796.00
2019-01-14T19:15:59.771Z,96820.00
2019-01-14T19:18:27.340Z,96813.00
2019-01-14T19:20:55.220Z,96816.00
2019-01-14T19:23:23.019Z,96824.00
2019-01-14T19:25:50.987Z,96829.00
2019-01-14T19:28:19.002Z,96823.00
2019-01-14T19:30:46.832Z,96834.00
2019-01-14T19:33:14.505Z,96830.00
2019-01-14T19:35:42.085Z,96841.00
2019-01-14T19:38:10.022Z,96833.00
2019-01-14T19:40:37.908Z,96838.00
2019-01-14T19:43:06.036Z,96843.00
2019-01-14T19:45:33.719Z,96850.00
2019-01-14T19:48:01.484Z,96844.00
2019-01-14T19:50:30.316Z,96837.00
2019-01-14T19:52:58.067Z,96847.00
2019-01-14T19:55:26.029Z,96855.00
2019-01-14T19:57:55.859Z,96860.00
2019-01-14T20:00:28.432Z,96866.00
2019-01-14T20:02:56.343Z,96875.00
2019-01-14T20:05:24.132Z,96871.00
2019-01-14T20:07:52.075Z,96882.00
2019-01-14T20:10:19.801Z,96880.00
2019-01-14T20:12:47.779Z,96879.00
2019-01-14T20:15:18.938Z,96884.00
2019-01-14T20:17:47.051Z,96894.00
2019-01-14T20:20:15.379Z,96894.00
2019-01-14T20:22:43.524Z,96885.00
2019-01-14T20:25:11.689Z,96887.00
2019-01-14T20:27:39.617Z,96886.00
2019-01-14T20:30:19.169Z,96879.00
2019-01-14T20:32:47.150Z,96878.00
2019-01-14T20:35:14.916Z,96896.00
2019-01-14T20:37:42.690Z,96894.00
2019-01-14T20:40:11.592Z,96901.00
2019-01-14T20:42:39.721Z,96897.00
2019-01-14T20:45:08.019Z,96892.00
2019-01-14T20:47:36.798Z,96907.00
2019-01-14T20:50:06.802Z,96900.00
2019-01-14T20:52:34.860Z,96906.00
2019-01-14T20:55:03.782Z,96900.00
2019-01-14T20:57:32.020Z,96895.00
2019-01-14T20:59:59.784Z,96925.00
2019-01-14T21:02:27.868Z,96923.00
2019-01-14T21:04:55.657Z,96923.00
2019-01-14T21:07:23.623Z,96922.00
2019-01-14T21:09:51.636Z,96925.00
2019-01-14T21:12:19.428Z,96922.00
2019-01-14T21:14:47.225Z,96935.00
2019-01-14T21:17:15.297Z,96919.00
2019-01-14T21:19:43.213Z,96922.00
2019-01-14T21:22:11.179Z,96925.00
2019-01-14T21:24:40.984Z,96923.00
2019-01-14T21:27:09.103Z,96925.00
2019-01-14T21:29:36.777Z,96924.00
2019-01-14T21:32:04.619Z,96939.00
2019-01-14T21:34:32.364Z,96935.00
2019-01-14T21:37:01.416Z,96933.00
2019-01-14T21:39:29.704Z,96938.00
2019-01-14T21:41:57.714Z,96931.00
2019-01-14T21:44:25.499Z,96935.00
2019-01-14T21:46:53.609Z,96943.00
2019-01-14T21:49:21.640Z,96961.00
2019-01-14T21:51:49.536Z,96936.00
2019-01-14T21:54:17.680Z,96936.00
2019-01-14T21:56:45.515Z,96943.00
2019-01-14T21:59:13.547Z,96936.00
2019-01-14T22:01:41.747Z,96948.00
2019-01-14T22:04:09.843Z,96952.00
2019-01-14T22:06:37.924Z,96951.00
2019-01-14T22:09:06.771Z,96954.00
2019-01-14T22:11:38.783Z,96956.00
2019-01-14T22:14:04.699Z,96958.00
2019-01-14T22:16:32.534Z,96956.00
2019-01-14T22:19:00.232Z,96936.00
2019-01-14T22:21:28.060Z,96947.00
2019-01-14T22:23:55.624Z,96952.00
2019-01-14T22:26:23.776Z,96966.00
2019-01-14T22:28:51.770Z,96953.00
2019-01-14T22:31:19.715Z,96954.00
2019-01-14T22:33:47.404Z,96956.00
2019-01-14T22:36:15.739Z,96967.00
2019-01-14T22:38:43.935Z,96954.00
2019-01-14T22:41:11.827Z,96962.00
2019-01-14T22:43:39.897Z,96958.00
2019-01-14T22:46:07.452Z,96955.00
2019-01-14T22:48:35.447Z,96956.00
2019-01-14T22:51:03.318Z,96953.00
2019-01-14T22:53:31.037Z,96962.00
2019-01-14T22:55:59.112Z,96952.00
2019-01-14T22:58:27.554Z,96963.00
2019-01-14T23:01:13.996Z,96972.00
2019-01-14T23:03:45.368Z,96979.00
2019-01-14T23:06:13.671Z,96968.00
2019-01-14T23:08:41.855Z,96972.00
2019-01-14T23:11:09.624Z,96980.00
2019-01-14T23:13:37.503Z,96986.00
2019-01-14T23:16:05.465Z,96989.00
2019-01-14T23:18:33.645Z,96970.00
2019-01-14T23:21:01.625Z,96988.00
2019-01-14T23:23:29.710Z,96987.00
2019-01-14T23:25:57.504Z,97003.00
2019-01-14T23:28:25.341Z,97006.00
2019-01-14T23:30:53.184Z,97000.00
2019-01-14T23:33:20.974Z,97009.00
2019-01-14T23:35:48.954Z,97015.00
2019-01-14T23:38:17.021Z,97017.00
2019-01-14T23:40:44.787Z,97009.00
2019-01-14T23:43:13.137Z,97011.00
2019-01-14T23:45:40.819Z,97018.00
2019-01-14T23:48:08.902Z,97031.00
2019-01-14T23:50:36.945Z,97008.00
2019-01-14T23:53:04.749Z,97012.00
2019-01-14T23:55:32.772Z,97011.00
2019-01-14T23:58:00.845Z,97015.00
